This is the latest recevied weather packets stored in our database for station/object EMGATE. If no packets are shown the sender has not sent any weather packets the latest 10 day(s).
| Time | Temp. | Humidity | Pressure | Rain* | Wind** | Luminosity | Snow |
|---|---|---|---|---|---|---|---|
| 1777305243 | 19.44° C | 38% | 1025.1 hPa | 0 mm | - | - | - |
| 1777304343 | 18.89° C | 39% | 1025.2 hPa | 0 mm | - | - | - |
| 1777303443 | 18.33° C | 42% | 1025.2 hPa | 0 mm | - | - | - |
| 1777302543 | 17.78° C | 42% | 1025.4 hPa | 0 mm | - | - | - |
| 1777301643 | 17.22° C | 45% | 1025.6 hPa | 0 mm | - | - | - |
| 1777300743 | 16.11° C | 45% | 1025.6 hPa | 0 mm | - | - | - |
| 1777299843 | 15.56° C | 48% | 1025.6 hPa | 0 mm | - | - | - |
| 1777298943 | 15° C | 50% | 1025.7 hPa | 0 mm | - | - | - |
| 1777298044 | 13.89° C | 51% | 1025.9 hPa | 0 mm | - | - | - |
| 1777297143 | 12.78° C | 53% | 1025.9 hPa | 0 mm | - | - | - |
| 1777296243 | 11.67° C | 55% | 1026 hPa | 0 mm | - | - | - |
| 1777295343 | 12.22° C | 52% | 1026 hPa | 0 mm | - | - | - |
| 1777294443 | 12.22° C | 52% | 1025.9 hPa | 0 mm | - | - | - |
| 1777293543 | 11.67° C | 53% | 1025.9 hPa | 0 mm | - | - | - |
| 1777292643 | 11.11° C | 54% | 1025.8 hPa | 0 mm | - | - | - |
| 1777291744 | 11.11° C | 55% | 1025.7 hPa | 0 mm | - | - | - |
| 1777290844 | 10.56° C | 56% | 1025.7 hPa | 0 mm | - | - | - |
| 1777289944 | 10° C | 59% | 1025.6 hPa | 0 mm | - | - | - |
| 1777289044 | 8.89° C | 63% | 1025.5 hPa | 0 mm | - | - | - |
| 1777288144 | 7.78° C | 65% | 1025.4 hPa | 0 mm | - | - | - |
| 1777287244 | 6.67° C | 69% | 1025.4 hPa | 0 mm | - | - | - |
| 1777286344 | 5.56° C | 71% | 1025.3 hPa | 0 mm | - | - | - |
| 1777285444 | 5.56° C | 71% | 1025.3 hPa | 0 mm | - | - | - |
| 1777284544 | 5° C | 71% | 1025.1 hPa | 0 mm | - | - | - |
| 1777283644 | 5° C | 71% | 1025 hPa | 0 mm | - | - | - |
* Rain latest hour (hover to see other rain measurements)
** Current wind speed in m/s (hover to see current wind gust speed)